Snowville, Virginia
Current Conditions -  °F | °C
As of 2:55 PM on Sunday 21 Dec 2014 (Local Time) from KPSK Reporting Station
Overcast Overcast  
Wind Chill: 45°   Ceiling: 3400
Heat Index: 45°   Visibility: 10mi
Dew Point: 34°   Wind: 3mph
Humidity: 66%   Direction: 70°ENE
Pressure: 30.18"   Gusts: NA
Location:  37.0726°N, 80.7961°W
Report Text: KPSK 211955Z AUTO 07003KT 10SM OVC034 07/01 A3018 RMK AO2 T00710011
Loading
Personal Weather Stations






























Interactive Weather Map New forecast layout! Learn more

10-Day Weather Forecast

Advertisements
Track Severe Weather on mobile